sensor_id;sensor_type;location;lat;lon;timestamp;temperature;humidity
51011;DHT22;37038;50.182;8.624;2023-06-10T00:01:49;19.30;99.90
51011;DHT22;37038;50.182;8.624;2023-06-10T00:04:37;19.20;99.90
51011;DHT22;37038;50.182;8.624;2023-06-10T00:07:25;19.10;99.90
51011;DHT22;37038;50.182;8.624;2023-06-10T00:10:13;19.10;99.90
51011;DHT22;37038;50.182;8.624;2023-06-10T00:13:02;19.10;99.90
51011;DHT22;37038;50.182;8.624;2023-06-10T00:15:51;19.10;99.90
51011;DHT22;37038;50.182;8.624;2023-06-10T00:18:39;19.00;99.90
51011;DHT22;37038;50.182;8.624;2023-06-10T00:21:27;19.00;99.90
51011;DHT22;37038;50.182;8.624;2023-06-10T00:24:15;19.10;99.90
51011;DHT22;37038;50.182;8.624;2023-06-10T00:27:03;19.10;99.90
51011;DHT22;37038;50.182;8.624;2023-06-10T00:29:51;19.10;99.90
51011;DHT22;37038;50.182;8.624;2023-06-10T00:32:38;19.10;99.90
51011;DHT22;37038;50.182;8.624;2023-06-10T00:35:26;19.00;99.90
51011;DHT22;37038;50.182;8.624;2023-06-10T00:38:14;19.00;99.90
51011;DHT22;37038;50.182;8.624;2023-06-10T00:41:02;19.00;99.90
51011;DHT22;37038;50.182;8.624;2023-06-10T00:43:50;19.00;99.90
51011;DHT22;37038;50.182;8.624;2023-06-10T00:46:37;19.00;99.90
51011;DHT22;37038;50.182;8.624;2023-06-10T00:49:25;19.00;99.90
51011;DHT22;37038;50.182;8.624;2023-06-10T00:52:17;19.10;99.90
51011;DHT22;37038;50.182;8.624;2023-06-10T00:55:06;19.00;99.90
51011;DHT22;37038;50.182;8.624;2023-06-10T00:57:56;18.90;99.90
51011;DHT22;37038;50.182;8.624;2023-06-10T01:00:44;18.90;99.90
51011;DHT22;37038;50.182;8.624;2023-06-10T01:03:35;18.80;99.90
51011;DHT22;37038;50.182;8.624;2023-06-10T01:06:41;18.80;99.90
51011;DHT22;37038;50.182;8.624;2023-06-10T01:09:46;18.80;99.90
51011;DHT22;37038;50.182;8.624;2023-06-10T01:12:43;18.80;99.90
51011;DHT22;37038;50.182;8.624;2023-06-10T01:15:37;18.70;99.90
51011;DHT22;37038;50.182;8.624;2023-06-10T01:18:30;18.80;99.90
51011;DHT22;37038;50.182;8.624;2023-06-10T01:21:22;18.80;99.90
51011;DHT22;37038;50.182;8.624;2023-06-10T01:24:14;18.60;99.90
51011;DHT22;37038;50.182;8.624;2023-06-10T01:27:12;18.60;99.90
51011;DHT22;37038;50.182;8.624;2023-06-10T01:30:14;18.60;99.90
51011;DHT22;37038;50.182;8.624;2023-06-10T01:33:07;18.60;99.90
51011;DHT22;37038;50.182;8.624;2023-06-10T01:35:58;18.40;99.90
51011;DHT22;37038;50.182;8.624;2023-06-10T01:38:47;18.30;99.90
51011;DHT22;37038;50.182;8.624;2023-06-10T01:41:36;18.40;99.90
51011;DHT22;37038;50.182;8.624;2023-06-10T01:44:24;18.40;99.90
51011;DHT22;37038;50.182;8.624;2023-06-10T01:47:12;18.50;99.90
51011;DHT22;37038;50.182;8.624;2023-06-10T01:49:59;18.40;99.90
51011;DHT22;37038;50.182;8.624;2023-06-10T01:52:48;18.40;99.90
51011;DHT22;37038;50.182;8.624;2023-06-10T01:55:56;18.30;99.90
51011;DHT22;37038;50.182;8.624;2023-06-10T01:58:44;18.40;99.90
51011;DHT22;37038;50.182;8.624;2023-06-10T02:01:34;18.50;99.90
51011;DHT22;37038;50.182;8.624;2023-06-10T02:04:22;18.50;99.90
51011;DHT22;37038;50.182;8.624;2023-06-10T02:07:10;18.40;99.90
51011;DHT22;37038;50.182;8.624;2023-06-10T02:09:59;18.30;99.90
51011;DHT22;37038;50.182;8.624;2023-06-10T02:12:47;18.20;99.90
51011;DHT22;37038;50.182;8.624;2023-06-10T02:15:35;18.20;99.90
51011;DHT22;37038;50.182;8.624;2023-06-10T02:18:22;18.10;99.90
51011;DHT22;37038;50.182;8.624;2023-06-10T02:21:10;18.10;99.90
51011;DHT22;37038;50.182;8.624;2023-06-10T02:24:00;18.10;99.90
51011;DHT22;37038;50.182;8.624;2023-06-10T02:26:48;18.00;99.90
51011;DHT22;37038;50.182;8.624;2023-06-10T02:29:36;18.10;99.90
51011;DHT22;37038;50.182;8.624;2023-06-10T02:32:24;18.00;99.90
51011;DHT22;37038;50.182;8.624;2023-06-10T02:35:14;18.10;99.90
51011;DHT22;37038;50.182;8.624;2023-06-10T02:38:02;17.80;99.90
51011;DHT22;37038;50.182;8.624;2023-06-10T02:40:50;17.90;99.90
51011;DHT22;37038;50.182;8.624;2023-06-10T02:43:38;18.00;99.90
51011;DHT22;37038;50.182;8.624;2023-06-10T02:46:26;17.90;99.90
51011;DHT22;37038;50.182;8.624;2023-06-10T02:49:16;18.00;99.90
51011;DHT22;37038;50.182;8.624;2023-06-10T02:52:04;17.90;99.90
51011;DHT22;37038;50.182;8.624;2023-06-10T02:54:54;18.10;99.90
51011;DHT22;37038;50.182;8.624;2023-06-10T02:57:42;18.10;99.90
51011;DHT22;37038;50.182;8.624;2023-06-10T03:00:30;17.80;99.90
51011;DHT22;37038;50.182;8.624;2023-06-10T03:03:18;17.60;99.90
51011;DHT22;37038;50.182;8.624;2023-06-10T03:06:06;17.50;99.90
51011;DHT22;37038;50.182;8.624;2023-06-10T03:08:54;17.50;99.90
51011;DHT22;37038;50.182;8.624;2023-06-10T03:11:42;17.50;99.90
51011;DHT22;37038;50.182;8.624;2023-06-10T03:14:29;17.60;99.90
51011;DHT22;37038;50.182;8.624;2023-06-10T03:17:17;17.70;99.90
51011;DHT22;37038;50.182;8.624;2023-06-10T03:20:05;17.70;99.90
51011;DHT22;37038;50.182;8.624;2023-06-10T03:22:55;17.70;99.90
51011;DHT22;37038;50.182;8.624;2023-06-10T03:25:42;17.50;99.90
51011;DHT22;37038;50.182;8.624;2023-06-10T03:28:31;17.70;99.90
51011;DHT22;37038;50.182;8.624;2023-06-10T03:31:18;17.60;99.90
51011;DHT22;37038;50.182;8.624;2023-06-10T03:34:06;17.50;99.90
51011;DHT22;37038;50.182;8.624;2023-06-10T03:36:54;17.50;99.90
51011;DHT22;37038;50.182;8.624;2023-06-10T03:39:42;17.60;99.90
51011;DHT22;37038;50.182;8.624;2023-06-10T03:42:30;17.50;99.90
51011;DHT22;37038;50.182;8.624;2023-06-10T03:45:17;17.50;99.90
51011;DHT22;37038;50.182;8.624;2023-06-10T03:48:05;17.70;99.90
51011;DHT22;37038;50.182;8.624;2023-06-10T03:50:53;17.70;99.90
51011;DHT22;37038;50.182;8.624;2023-06-10T03:53:41;17.80;99.90
51011;DHT22;37038;50.182;8.624;2023-06-10T03:56:29;17.80;99.90
51011;DHT22;37038;50.182;8.624;2023-06-10T03:59:16;17.80;99.90
51011;DHT22;37038;50.182;8.624;2023-06-10T04:02:04;18.00;99.90
51011;DHT22;37038;50.182;8.624;2023-06-10T04:04:52;18.10;99.90
51011;DHT22;37038;50.182;8.624;2023-06-10T04:07:40;18.40;99.90
51011;DHT22;37038;50.182;8.624;2023-06-10T04:10:30;18.50;99.90
51011;DHT22;37038;50.182;8.624;2023-06-10T04:13:18;18.60;99.90
51011;DHT22;37038;50.182;8.624;2023-06-10T04:16:07;19.00;99.90
51011;DHT22;37038;50.182;8.624;2023-06-10T04:18:55;19.20;99.90
51011;DHT22;37038;50.182;8.624;2023-06-10T04:21:42;19.60;99.90
51011;DHT22;37038;50.182;8.624;2023-06-10T04:24:30;19.70;99.90
51011;DHT22;37038;50.182;8.624;2023-06-10T04:27:18;20.40;99.90
51011;DHT22;37038;50.182;8.624;2023-06-10T04:30:07;21.00;99.90
51011;DHT22;37038;50.182;8.624;2023-06-10T04:32:55;21.30;99.90
51011;DHT22;37038;50.182;8.624;2023-06-10T04:35:43;21.10;99.90
51011;DHT22;37038;50.182;8.624;2023-06-10T04:38:30;20.80;99.90
51011;DHT22;37038;50.182;8.624;2023-06-10T04:41:18;20.40;99.90
51011;DHT22;37038;50.182;8.624;2023-06-10T04:44:07;20.30;99.90
51011;DHT22;37038;50.182;8.624;2023-06-10T04:46:55;20.20;99.90
51011;DHT22;37038;50.182;8.624;2023-06-10T04:49:43;20.10;99.90
51011;DHT22;37038;50.182;8.624;2023-06-10T04:52:32;19.90;99.90
51011;DHT22;37038;50.182;8.624;2023-06-10T04:55:21;20.00;99.90
51011;DHT22;37038;50.182;8.624;2023-06-10T04:58:09;20.20;99.90
51011;DHT22;37038;50.182;8.624;2023-06-10T05:00:56;20.50;99.90
51011;DHT22;37038;50.182;8.624;2023-06-10T05:03:47;20.70;99.90
51011;DHT22;37038;50.182;8.624;2023-06-10T05:06:35;21.00;99.90
51011;DHT22;37038;50.182;8.624;2023-06-10T05:09:24;21.10;99.90
51011;DHT22;37038;50.182;8.624;2023-06-10T05:12:11;21.20;99.90
51011;DHT22;37038;50.182;8.624;2023-06-10T05:14:59;21.80;99.90
51011;DHT22;37038;50.182;8.624;2023-06-10T05:17:57;22.70;99.90
51011;DHT22;37038;50.182;8.624;2023-06-10T05:20:50;23.90;99.90
51011;DHT22;37038;50.182;8.624;2023-06-10T05:23:41;24.60;98.00
51011;DHT22;37038;50.182;8.624;2023-06-10T05:26:33;25.10;97.40
51011;DHT22;37038;50.182;8.624;2023-06-10T05:29:27;26.20;93.80
51011;DHT22;37038;50.182;8.624;2023-06-10T05:32:18;26.80;90.30
51011;DHT22;37038;50.182;8.624;2023-06-10T05:35:14;26.90;87.00
51011;DHT22;37038;50.182;8.624;2023-06-10T05:38:04;26.80;83.90
51011;DHT22;37038;50.182;8.624;2023-06-10T05:40:55;27.10;82.00
51011;DHT22;37038;50.182;8.624;2023-06-10T05:43:46;27.30;78.70
51011;DHT22;37038;50.182;8.624;2023-06-10T05:46:38;27.90;75.80
51011;DHT22;37038;50.182;8.624;2023-06-10T05:49:27;27.90;70.90
51011;DHT22;37038;50.182;8.624;2023-06-10T05:52:19;28.50;66.70
51011;DHT22;37038;50.182;8.624;2023-06-10T05:55:07;28.70;63.30
51011;DHT22;37038;50.182;8.624;2023-06-10T05:58:01;28.40;63.00
51011;DHT22;37038;50.182;8.624;2023-06-10T06:00:52;28.50;61.40
51011;DHT22;37038;50.182;8.624;2023-06-10T06:03:42;28.80;59.20
51011;DHT22;37038;50.182;8.624;2023-06-10T06:06:34;29.60;58.00
51011;DHT22;37038;50.182;8.624;2023-06-10T06:09:27;29.90;54.60
51011;DHT22;37038;50.182;8.624;2023-06-10T06:12:16;29.50;54.00
51011;DHT22;37038;50.182;8.624;2023-06-10T06:15:04;30.10;53.20
51011;DHT22;37038;50.182;8.624;2023-06-10T06:17:55;31.10;50.40
51011;DHT22;37038;50.182;8.624;2023-06-10T06:20:45;31.30;47.70
51011;DHT22;37038;50.182;8.624;2023-06-10T06:23:42;31.40;45.20
51011;DHT22;37038;50.182;8.624;2023-06-10T06:26:41;32.10;42.40
51011;DHT22;37038;50.182;8.624;2023-06-10T06:29:33;32.40;39.10
51011;DHT22;37038;50.182;8.624;2023-06-10T06:32:24;31.60;36.10
51011;DHT22;37038;50.182;8.624;2023-06-10T06:35:17;31.60;36.00
51011;DHT22;37038;50.182;8.624;2023-06-10T06:38:10;30.90;37.90
51011;DHT22;37038;50.182;8.624;2023-06-10T06:41:00;30.80;35.20
51011;DHT22;37038;50.182;8.624;2023-06-10T06:43:57;30.20;34.80
51011;DHT22;37038;50.182;8.624;2023-06-10T06:46:49;30.30;34.40
51011;DHT22;37038;50.182;8.624;2023-06-10T06:49:40;30.40;33.90
51011;DHT22;37038;50.182;8.624;2023-06-10T06:52:29;30.80;35.20
51011;DHT22;37038;50.182;8.624;2023-06-10T06:55:19;32.00;33.20
51011;DHT22;37038;50.182;8.624;2023-06-10T06:58:10;31.30;28.40
51011;DHT22;37038;50.182;8.624;2023-06-10T07:01:02;31.30;27.40
51011;DHT22;37038;50.182;8.624;2023-06-10T07:03:58;31.40;24.30
51011;DHT22;37038;50.182;8.624;2023-06-10T07:06:52;31.80;23.70
51011;DHT22;37038;50.182;8.624;2023-06-10T07:09:40;31.90;24.60
51011;DHT22;37038;50.182;8.624;2023-06-10T07:12:33;32.70;23.10
51011;DHT22;37038;50.182;8.624;2023-06-10T07:15:26;32.40;23.10
51011;DHT22;37038;50.182;8.624;2023-06-10T07:18:16;33.00;23.50
51011;DHT22;37038;50.182;8.624;2023-06-10T07:21:11;32.90;21.60
51011;DHT22;37038;50.182;8.624;2023-06-10T07:24:04;33.00;21.70
51011;DHT22;37038;50.182;8.624;2023-06-10T07:26:54;33.90;18.20
51011;DHT22;37038;50.182;8.624;2023-06-10T07:29:43;34.40;16.90
51011;DHT22;37038;50.182;8.624;2023-06-10T07:32:36;34.00;16.50
51011;DHT22;37038;50.182;8.624;2023-06-10T07:35:29;33.80;15.90
51011;DHT22;37038;50.182;8.624;2023-06-10T07:38:21;34.80;15.10
51011;DHT22;37038;50.182;8.624;2023-06-10T07:41:13;34.90;14.90
51011;DHT22;37038;50.182;8.624;2023-06-10T07:44:05;34.90;14.00
51011;DHT22;37038;50.182;8.624;2023-06-10T07:46:57;35.20;14.10
51011;DHT22;37038;50.182;8.624;2023-06-10T07:49:47;35.70;12.10
51011;DHT22;37038;50.182;8.624;2023-06-10T07:52:39;36.20;9.90
51011;DHT22;37038;50.182;8.624;2023-06-10T07:55:32;35.80;9.40
51011;DHT22;37038;50.182;8.624;2023-06-10T07:58:27;35.40;9.40
51011;DHT22;37038;50.182;8.624;2023-06-10T08:01:16;35.70;10.50
51011;DHT22;37038;50.182;8.624;2023-06-10T08:04:06;35.00;9.10
51011;DHT22;37038;50.182;8.624;2023-06-10T08:06:59;35.20;10.50
51011;DHT22;37038;50.182;8.624;2023-06-10T08:09:50;34.80;9.30
51011;DHT22;37038;50.182;8.624;2023-06-10T08:12:39;34.50;10.70
51011;DHT22;37038;50.182;8.624;2023-06-10T08:15:28;35.00;9.80
51011;DHT22;37038;50.182;8.624;2023-06-10T08:18:20;34.60;10.40
51011;DHT22;37038;50.182;8.624;2023-06-10T08:21:11;34.80;10.30
51011;DHT22;37038;50.182;8.624;2023-06-10T08:24:00;35.10;9.30
51011;DHT22;37038;50.182;8.624;2023-06-10T08:26:50;35.90;7.60
51011;DHT22;37038;50.182;8.624;2023-06-10T08:29:40;35.90;8.80
51011;DHT22;37038;50.182;8.624;2023-06-10T08:32:31;34.60;8.70
51011;DHT22;37038;50.182;8.624;2023-06-10T08:35:23;34.00;10.40
51011;DHT22;37038;50.182;8.624;2023-06-10T08:38:14;34.70;10.10
51011;DHT22;37038;50.182;8.624;2023-06-10T08:41:06;35.50;10.50
51011;DHT22;37038;50.182;8.624;2023-06-10T08:44:21;35.10;9.10
51011;DHT22;37038;50.182;8.624;2023-06-10T08:47:18;35.20;10.40
51011;DHT22;37038;50.182;8.624;2023-06-10T08:50:16;35.50;9.10
51011;DHT22;37038;50.182;8.624;2023-06-10T08:53:08;35.60;8.50
51011;DHT22;37038;50.182;8.624;2023-06-10T08:56:02;35.60;7.80
51011;DHT22;37038;50.182;8.624;2023-06-10T08:58:57;35.30;8.50
51011;DHT22;37038;50.182;8.624;2023-06-10T09:01:48;35.30;7.00
51011;DHT22;37038;50.182;8.624;2023-06-10T09:04:42;34.50;7.60
51011;DHT22;37038;50.182;8.624;2023-06-10T09:07:35;35.00;8.10
51011;DHT22;37038;50.182;8.624;2023-06-10T09:10:25;34.90;8.60
51011;DHT22;37038;50.182;8.624;2023-06-10T09:13:15;34.40;9.40
51011;DHT22;37038;50.182;8.624;2023-06-10T09:16:08;34.90;9.20
51011;DHT22;37038;50.182;8.624;2023-06-10T09:18:58;35.10;8.10
51011;DHT22;37038;50.182;8.624;2023-06-10T09:21:51;35.60;8.40
51011;DHT22;37038;50.182;8.624;2023-06-10T09:24:41;36.60;6.80
51011;DHT22;37038;50.182;8.624;2023-06-10T09:27:35;36.80;6.70
51011;DHT22;37038;50.182;8.624;2023-06-10T09:30:35;36.50;4.70
51011;DHT22;37038;50.182;8.624;2023-06-10T09:33:25;37.20;5.80
51011;DHT22;37038;50.182;8.624;2023-06-10T09:36:26;38.10;4.50
51011;DHT22;37038;50.182;8.624;2023-06-10T09:39:18;37.60;5.40
51011;DHT22;37038;50.182;8.624;2023-06-10T09:42:20;37.20;1.80
51011;DHT22;37038;50.182;8.624;2023-06-10T09:45:10;33.10;5.00
51011;DHT22;37038;50.182;8.624;2023-06-10T09:48:00;34.30;5.20
51011;DHT22;37038;50.182;8.624;2023-06-10T09:50:51;35.30;4.90
51011;DHT22;37038;50.182;8.624;2023-06-10T09:53:48;36.10;4.10
51011;DHT22;37038;50.182;8.624;2023-06-10T09:56:39;36.10;5.10
51011;DHT22;37038;50.182;8.624;2023-06-10T09:59:31;36.60;5.40
51011;DHT22;37038;50.182;8.624;2023-06-10T10:02:23;36.30;3.00
51011;DHT22;37038;50.182;8.624;2023-06-10T10:05:15;35.60;3.80
51011;DHT22;37038;50.182;8.624;2023-06-10T10:08:03;36.40;3.40
51011;DHT22;37038;50.182;8.624;2023-06-10T10:10:56;37.10;4.10
51011;DHT22;37038;50.182;8.624;2023-06-10T10:13:52;37.10;3.70
51011;DHT22;37038;50.182;8.624;2023-06-10T10:16:49;36.30;3.40
51011;DHT22;37038;50.182;8.624;2023-06-10T10:19:58;37.50;3.30
51011;DHT22;37038;50.182;8.624;2023-06-10T10:22:52;37.50;3.60
51011;DHT22;37038;50.182;8.624;2023-06-10T10:25:52;37.10;2.10
51011;DHT22;37038;50.182;8.624;2023-06-10T10:29:11;37.60;2.10
51011;DHT22;37038;50.182;8.624;2023-06-10T10:32:02;38.90;1.00
51011;DHT22;37038;50.182;8.624;2023-06-10T10:35:16;38.70;1.20
51011;DHT22;37038;50.182;8.624;2023-06-10T10:38:09;38.30;1.00
51011;DHT22;37038;50.182;8.624;2023-06-10T10:41:00;38.10;2.20
51011;DHT22;37038;50.182;8.624;2023-06-10T10:43:55;36.60;1.00
51011;DHT22;37038;50.182;8.624;2023-06-10T10:46:49;37.00;1.40
51011;DHT22;37038;50.182;8.624;2023-06-10T10:49:41;36.40;2.30
51011;DHT22;37038;50.182;8.624;2023-06-10T10:52:51;36.40;1.00
51011;DHT22;37038;50.182;8.624;2023-06-10T10:59:07;38.10;1.00
51011;DHT22;37038;50.182;8.624;2023-06-10T11:01:59;38.20;1.00
51011;DHT22;37038;50.182;8.624;2023-06-10T11:04:51;37.40;1.00
51011;DHT22;37038;50.182;8.624;2023-06-10T11:07:52;37.70;1.00
51011;DHT22;37038;50.182;8.624;2023-06-10T11:10:51;36.70;1.00
51011;DHT22;37038;50.182;8.624;2023-06-10T11:16:51;36.00;1.00
51011;DHT22;37038;50.182;8.624;2023-06-10T11:19:45;37.20;1.00
51011;DHT22;37038;50.182;8.624;2023-06-10T11:22:58;35.90;1.00
51011;DHT22;37038;50.182;8.624;2023-06-10T11:25:51;37.30;1.00
51011;DHT22;37038;50.182;8.624;2023-06-10T11:29:05;38.50;1.00
51011;DHT22;37038;50.182;8.624;2023-06-10T11:31:59;36.60;1.00
51011;DHT22;37038;50.182;8.624;2023-06-10T11:34:54;38.50;1.00
51011;DHT22;37038;50.182;8.624;2023-06-10T11:37:46;37.20;1.00
51011;DHT22;37038;50.182;8.624;2023-06-10T11:40:47;34.40;1.00
51011;DHT22;37038;50.182;8.624;2023-06-10T11:43:48;35.20;1.00
51011;DHT22;37038;50.182;8.624;2023-06-10T11:46:40;36.00;1.00
51011;DHT22;37038;50.182;8.624;2023-06-10T11:49:36;35.00;1.00
51011;DHT22;37038;50.182;8.624;2023-06-10T11:52:30;36.50;1.00
51011;DHT22;37038;50.182;8.624;2023-06-10T11:55:40;37.70;1.00
51011;DHT22;37038;50.182;8.624;2023-06-10T11:58:36;37.60;1.00
51011;DHT22;37038;50.182;8.624;2023-06-10T12:01:29;35.00;1.00
51011;DHT22;37038;50.182;8.624;2023-06-10T12:04:27;32.90;1.00
51011;DHT22;37038;50.182;8.624;2023-06-10T12:07:36;31.30;1.00
51011;DHT22;37038;50.182;8.624;2023-06-10T12:10:26;30.70;1.00
51011;DHT22;37038;50.182;8.624;2023-06-10T12:13:17;31.40;1.40
51011;DHT22;37038;50.182;8.624;2023-06-10T12:16:12;33.20;1.00
51011;DHT22;37038;50.182;8.624;2023-06-10T12:19:07;34.90;1.00
51011;DHT22;37038;50.182;8.624;2023-06-10T12:22:00;37.00;1.00
51011;DHT22;37038;50.182;8.624;2023-06-10T12:25:02;35.70;1.00
51011;DHT22;37038;50.182;8.624;2023-06-10T12:27:57;34.50;1.00
51011;DHT22;37038;50.182;8.624;2023-06-10T12:30:45;34.50;1.00
51011;DHT22;37038;50.182;8.624;2023-06-10T12:33:34;36.20;1.00
51011;DHT22;37038;50.182;8.624;2023-06-10T12:36:26;36.90;1.00
51011;DHT22;37038;50.182;8.624;2023-06-10T12:39:17;37.30;1.00
51011;DHT22;37038;50.182;8.624;2023-06-10T12:42:06;32.60;1.00
51011;DHT22;37038;50.182;8.624;2023-06-10T12:45:01;33.40;1.20
51011;DHT22;37038;50.182;8.624;2023-06-10T12:47:52;35.80;1.00
51011;DHT22;37038;50.182;8.624;2023-06-10T12:50:43;37.80;1.00
51011;DHT22;37038;50.182;8.624;2023-06-10T12:53:36;38.40;1.00
51011;DHT22;37038;50.182;8.624;2023-06-10T12:56:29;38.30;1.00
51011;DHT22;37038;50.182;8.624;2023-06-10T12:59:20;36.60;1.00
51011;DHT22;37038;50.182;8.624;2023-06-10T13:02:10;35.70;1.00
51011;DHT22;37038;50.182;8.624;2023-06-10T13:05:02;37.00;1.00
51011;DHT22;37038;50.182;8.624;2023-06-10T13:07:54;38.80;1.00
51011;DHT22;37038;50.182;8.624;2023-06-10T13:10:45;39.20;1.00
51011;DHT22;37038;50.182;8.624;2023-06-10T13:13:38;38.10;1.00
51011;DHT22;37038;50.182;8.624;2023-06-10T13:16:31;37.30;1.00
51011;DHT22;37038;50.182;8.624;2023-06-10T13:19:21;37.30;1.00
51011;DHT22;37038;50.182;8.624;2023-06-10T13:22:12;37.80;1.00
51011;DHT22;37038;50.182;8.624;2023-06-10T13:25:05;39.00;1.00
51011;DHT22;37038;50.182;8.624;2023-06-10T13:27:59;39.10;1.00
51011;DHT22;37038;50.182;8.624;2023-06-10T13:30:51;38.40;1.00
51011;DHT22;37038;50.182;8.624;2023-06-10T13:33:41;38.30;1.00
51011;DHT22;37038;50.182;8.624;2023-06-10T13:36:32;38.00;1.00
51011;DHT22;37038;50.182;8.624;2023-06-10T13:39:21;37.70;1.00
51011;DHT22;37038;50.182;8.624;2023-06-10T13:42:12;37.80;1.00
51011;DHT22;37038;50.182;8.624;2023-06-10T13:45:04;38.80;1.00
51011;DHT22;37038;50.182;8.624;2023-06-10T13:47:57;39.20;1.00
51011;DHT22;37038;50.182;8.624;2023-06-10T13:50:47;40.30;1.00
51011;DHT22;37038;50.182;8.624;2023-06-10T13:53:36;39.30;1.00
51011;DHT22;37038;50.182;8.624;2023-06-10T13:56:26;39.30;1.00
51011;DHT22;37038;50.182;8.624;2023-06-10T13:59:18;36.30;1.00
51011;DHT22;37038;50.182;8.624;2023-06-10T14:02:11;34.50;1.00
51011;DHT22;37038;50.182;8.624;2023-06-10T14:05:03;33.20;1.00
51011;DHT22;37038;50.182;8.624;2023-06-10T14:07:57;32.80;1.00
51011;DHT22;37038;50.182;8.624;2023-06-10T14:10:49;33.70;1.00
51011;DHT22;37038;50.182;8.624;2023-06-10T14:13:41;35.50;1.00
51011;DHT22;37038;50.182;8.624;2023-06-10T14:16:35;36.00;1.00
51011;DHT22;37038;50.182;8.624;2023-06-10T14:19:26;36.80;1.00
51011;DHT22;37038;50.182;8.624;2023-06-10T14:22:18;37.00;1.00
51011;DHT22;37038;50.182;8.624;2023-06-10T14:25:07;37.30;1.00
51011;DHT22;37038;50.182;8.624;2023-06-10T14:27:58;37.50;1.00
51011;DHT22;37038;50.182;8.624;2023-06-10T14:30:49;37.90;1.00
51011;DHT22;37038;50.182;8.624;2023-06-10T14:33:44;37.60;1.00
51011;DHT22;37038;50.182;8.624;2023-06-10T14:36:38;38.40;1.00
51011;DHT22;37038;50.182;8.624;2023-06-10T14:39:30;36.60;1.00
51011;DHT22;37038;50.182;8.624;2023-06-10T14:42:21;36.20;1.00
51011;DHT22;37038;50.182;8.624;2023-06-10T14:45:17;36.40;1.00
51011;DHT22;37038;50.182;8.624;2023-06-10T14:48:14;36.60;1.00
51011;DHT22;37038;50.182;8.624;2023-06-10T14:51:06;37.20;1.00
51011;DHT22;37038;50.182;8.624;2023-06-10T14:53:58;36.50;1.00
51011;DHT22;37038;50.182;8.624;2023-06-10T14:56:51;36.60;1.00
51011;DHT22;37038;50.182;8.624;2023-06-10T14:59:44;37.00;1.00
51011;DHT22;37038;50.182;8.624;2023-06-10T15:02:37;37.30;1.00
51011;DHT22;37038;50.182;8.624;2023-06-10T15:05:31;38.10;1.00
51011;DHT22;37038;50.182;8.624;2023-06-10T15:08:22;37.60;1.00
51011;DHT22;37038;50.182;8.624;2023-06-10T15:11:13;36.50;1.00
51011;DHT22;37038;50.182;8.624;2023-06-10T15:14:02;36.50;1.00
51011;DHT22;37038;50.182;8.624;2023-06-10T15:16:54;36.90;1.00
51011;DHT22;37038;50.182;8.624;2023-06-10T15:19:47;36.80;1.00
51011;DHT22;37038;50.182;8.624;2023-06-10T15:22:39;36.80;1.00
51011;DHT22;37038;50.182;8.624;2023-06-10T15:25:31;36.30;1.00
51011;DHT22;37038;50.182;8.624;2023-06-10T15:28:28;36.20;1.00
51011;DHT22;37038;50.182;8.624;2023-06-10T15:31:20;36.50;1.00
51011;DHT22;37038;50.182;8.624;2023-06-10T15:34:18;36.80;1.00
51011;DHT22;37038;50.182;8.624;2023-06-10T15:37:20;36.20;1.00
51011;DHT22;37038;50.182;8.624;2023-06-10T15:40:16;36.70;1.00
51011;DHT22;37038;50.182;8.624;2023-06-10T15:43:13;37.20;1.00
51011;DHT22;37038;50.182;8.624;2023-06-10T15:46:05;36.10;1.00
51011;DHT22;37038;50.182;8.624;2023-06-10T15:49:24;36.40;1.00
51011;DHT22;37038;50.182;8.624;2023-06-10T15:52:19;36.10;1.00
51011;DHT22;37038;50.182;8.624;2023-06-10T15:55:08;35.10;1.00
51011;DHT22;37038;50.182;8.624;2023-06-10T15:58:01;35.20;1.00
51011;DHT22;37038;50.182;8.624;2023-06-10T16:00:52;35.30;1.00
51011;DHT22;37038;50.182;8.624;2023-06-10T16:03:44;35.50;1.00
51011;DHT22;37038;50.182;8.624;2023-06-10T16:06:35;35.10;1.00
51011;DHT22;37038;50.182;8.624;2023-06-10T16:09:37;35.30;1.00
51011;DHT22;37038;50.182;8.624;2023-06-10T16:12:27;35.50;1.00
51011;DHT22;37038;50.182;8.624;2023-06-10T16:15:18;35.00;1.00
51011;DHT22;37038;50.182;8.624;2023-06-10T16:18:10;34.30;1.00
51011;DHT22;37038;50.182;8.624;2023-06-10T16:21:03;34.10;1.00
51011;DHT22;37038;50.182;8.624;2023-06-10T16:23:55;34.40;1.00
51011;DHT22;37038;50.182;8.624;2023-06-10T16:26:49;34.20;1.00
51011;DHT22;37038;50.182;8.624;2023-06-10T16:29:44;34.00;1.00
51011;DHT22;37038;50.182;8.624;2023-06-10T16:32:43;35.10;1.00
51011;DHT22;37038;50.182;8.624;2023-06-10T16:35:35;34.50;1.00
51011;DHT22;37038;50.182;8.624;2023-06-10T16:38:30;34.00;1.00
51011;DHT22;37038;50.182;8.624;2023-06-10T16:41:24;33.90;1.00
51011;DHT22;37038;50.182;8.624;2023-06-10T16:44:15;34.30;1.00
51011;DHT22;37038;50.182;8.624;2023-06-10T16:47:09;33.70;1.00
51011;DHT22;37038;50.182;8.624;2023-06-10T16:50:02;33.60;1.00
51011;DHT22;37038;50.182;8.624;2023-06-10T16:52:52;33.60;1.00
51011;DHT22;37038;50.182;8.624;2023-06-10T16:55:46;33.10;1.00
51011;DHT22;37038;50.182;8.624;2023-06-10T16:58:38;33.10;1.00
51011;DHT22;37038;50.182;8.624;2023-06-10T17:01:31;33.30;1.00
51011;DHT22;37038;50.182;8.624;2023-06-10T17:04:21;32.90;1.00
51011;DHT22;37038;50.182;8.624;2023-06-10T17:07:11;32.50;1.00
51011;DHT22;37038;50.182;8.624;2023-06-10T17:10:01;32.50;1.00
51011;DHT22;37038;50.182;8.624;2023-06-10T17:12:51;32.10;1.30
51011;DHT22;37038;50.182;8.624;2023-06-10T17:15:42;32.10;1.80
51011;DHT22;37038;50.182;8.624;2023-06-10T17:18:31;32.10;1.00
51011;DHT22;37038;50.182;8.624;2023-06-10T17:21:08;31.50;2.00
51011;DHT22;37038;50.182;8.624;2023-06-10T17:23:58;31.80;2.50
51011;DHT22;37038;50.182;8.624;2023-06-10T17:26:50;31.60;2.30
51011;DHT22;37038;50.182;8.624;2023-06-10T17:29:42;31.60;2.80
51011;DHT22;37038;50.182;8.624;2023-06-10T17:32:33;31.30;3.40
51011;DHT22;37038;50.182;8.624;2023-06-10T17:35:23;31.40;3.90
51011;DHT22;37038;50.182;8.624;2023-06-10T17:38:12;31.20;3.90
51011;DHT22;37038;50.182;8.624;2023-06-10T17:41:04;31.30;5.30
51011;DHT22;37038;50.182;8.624;2023-06-10T17:43:55;30.40;5.80
51011;DHT22;37038;50.182;8.624;2023-06-10T17:46:44;29.80;6.40
51011;DHT22;37038;50.182;8.624;2023-06-10T17:49:36;29.70;6.70
51011;DHT22;37038;50.182;8.624;2023-06-10T17:52:28;29.80;6.70
51011;DHT22;37038;50.182;8.624;2023-06-10T17:55:17;30.00;6.20
51011;DHT22;37038;50.182;8.624;2023-06-10T17:58:09;29.90;6.10
51011;DHT22;37038;50.182;8.624;2023-06-10T18:00:58;30.30;5.80
51011;DHT22;37038;50.182;8.624;2023-06-10T18:03:49;30.00;5.90
51011;DHT22;37038;50.182;8.624;2023-06-10T18:06:38;29.60;6.10
51011;DHT22;37038;50.182;8.624;2023-06-10T18:09:27;29.40;7.60
51011;DHT22;37038;50.182;8.624;2023-06-10T18:12:17;29.40;8.60
51011;DHT22;37038;50.182;8.624;2023-06-10T18:15:06;29.60;8.70
51011;DHT22;37038;50.182;8.624;2023-06-10T18:17:57;29.30;9.00
51011;DHT22;37038;50.182;8.624;2023-06-10T18:20:47;28.90;9.70
51011;DHT22;37038;50.182;8.624;2023-06-10T18:23:36;28.90;10.00